createdAt,value
2018-09-06T00:00:07.056Z,70.42
2018-09-06T00:02:35.831Z,70.52
2018-09-06T00:05:04.625Z,70.32
2018-09-06T00:07:33.415Z,71.22
2018-09-06T00:10:02.232Z,71.04
2018-09-06T00:12:31.025Z,70.47
2018-09-06T00:14:59.812Z,71.47
2018-09-06T00:17:28.643Z,71.23
2018-09-06T00:19:57.455Z,70.73
2018-09-06T00:22:26.349Z,70.70
2018-09-06T00:24:55.227Z,71.12
2018-09-06T00:27:24.092Z,71.35
2018-09-06T00:29:52.908Z,70.87
2018-09-06T00:32:21.726Z,71.36
2018-09-06T00:34:50.573Z,71.17
2018-09-06T00:37:19.334Z,71.48
2018-09-06T00:39:48.196Z,70.69
2018-09-06T00:42:16.973Z,71.23
2018-09-06T00:44:45.896Z,71.26
2018-09-06T00:47:14.700Z,70.81
2018-09-06T00:49:43.824Z,70.79
2018-09-06T00:52:12.660Z,71.54
2018-09-06T00:54:41.515Z,71.38
2018-09-06T00:57:10.337Z,71.29
2018-09-06T00:59:39.151Z,70.62
2018-09-06T01:02:08.167Z,70.73
2018-09-06T01:04:37.013Z,70.56
2018-09-06T01:07:05.802Z,70.39
2018-09-06T01:09:34.663Z,70.06
2018-09-06T01:12:03.468Z,70.48
2018-09-06T01:14:32.231Z,70.47
2018-09-06T01:17:01.018Z,70.69
2018-09-06T01:19:29.792Z,70.51
2018-09-06T01:21:58.928Z,70.76
2018-09-06T01:24:27.696Z,70.55
2018-09-06T01:26:56.454Z,70.64
2018-09-06T01:29:25.210Z,70.93
2018-09-06T01:31:53.985Z,70.98
2018-09-06T01:34:22.825Z,71.47
2018-09-06T01:36:51.640Z,71.04
2018-09-06T01:39:20.444Z,70.77
2018-09-06T01:41:49.283Z,70.84
2018-09-06T01:44:18.087Z,70.87
2018-09-06T01:46:46.870Z,71.40
2018-09-06T01:49:15.657Z,71.10
2018-09-06T01:51:44.534Z,71.66
2018-09-06T01:54:13.360Z,71.22
2018-09-06T01:56:42.125Z,71.33
2018-09-06T01:59:14.050Z,70.72
2018-09-06T02:01:43.305Z,70.93
2018-09-06T02:04:12.320Z,71.29
2018-09-06T02:06:41.086Z,71.70
2018-09-06T02:09:10.348Z,71.59
2018-09-06T02:11:40.562Z,72.03
2018-09-06T02:14:09.620Z,71.53
2018-09-06T02:16:38.393Z,71.41
2018-09-06T02:19:07.539Z,71.71
2018-09-06T02:21:36.392Z,71.43
2018-09-06T02:24:05.612Z,70.99
2018-09-06T02:26:34.400Z,71.72
2018-09-06T02:29:03.194Z,71.26
2018-09-06T02:31:31.996Z,70.86
2018-09-06T02:34:00.886Z,71.17
2018-09-06T02:36:29.680Z,70.88
2018-09-06T02:38:58.559Z,70.49
2018-09-06T02:41:27.350Z,71.15
2018-09-06T02:43:56.125Z,70.88
2018-09-06T02:46:24.912Z,70.80
2018-09-06T02:48:53.691Z,70.62
2018-09-06T02:51:22.518Z,70.00
2018-09-06T02:53:51.309Z,69.70
2018-09-06T02:56:20.261Z,69.78
2018-09-06T02:58:49.044Z,70.52
2018-09-06T03:01:17.885Z,69.78
2018-09-06T03:03:46.658Z,69.96
2018-09-06T03:06:15.473Z,70.39
2018-09-06T03:08:44.658Z,70.37
2018-09-06T03:11:15.943Z,70.67
2018-09-06T03:13:44.888Z,70.09
2018-09-06T03:16:13.758Z,70.60
2018-09-06T03:18:42.670Z,70.76
2018-09-06T03:21:11.438Z,70.62
2018-09-06T03:23:40.349Z,70.17
2018-09-06T03:26:14.265Z,69.77
2018-09-06T03:28:43.194Z,70.20
2018-09-06T03:31:12.003Z,70.26
2018-09-06T03:33:40.795Z,69.77
2018-09-06T03:36:09.627Z,69.73
2018-09-06T03:38:38.758Z,69.52
2018-09-06T03:41:07.654Z,70.20
2018-09-06T03:43:36.459Z,70.07
2018-09-06T03:46:06.799Z,69.60
2018-09-06T03:48:35.609Z,70.37
2018-09-06T03:51:05.112Z,70.88
2018-09-06T03:53:34.017Z,71.94
2018-09-06T03:56:02.903Z,71.44
2018-09-06T03:58:31.767Z,72.29
2018-09-06T04:01:00.631Z,71.92
2018-09-06T04:03:29.486Z,71.71
2018-09-06T04:05:58.263Z,71.05
2018-09-06T04:08:27.051Z,71.08
2018-09-06T04:10:55.868Z,71.22
2018-09-06T04:13:24.711Z,72.12
2018-09-06T04:15:53.523Z,72.04
2018-09-06T04:18:22.365Z,71.86
2018-09-06T04:20:51.153Z,71.32
2018-09-06T04:23:20.028Z,70.78
2018-09-06T04:25:48.893Z,71.12
2018-09-06T04:28:17.794Z,69.95
2018-09-06T04:30:46.651Z,69.30
2018-09-06T04:33:15.455Z,68.93
2018-09-06T04:35:44.328Z,67.71
2018-09-06T04:38:13.227Z,68.65
2018-09-06T04:40:42.054Z,68.49
2018-09-06T04:43:10.966Z,67.71
2018-09-06T04:45:39.771Z,68.15
2018-09-06T04:48:08.531Z,67.47
2018-09-06T04:50:37.343Z,67.98
2018-09-06T04:53:06.137Z,67.58
2018-09-06T04:55:34.919Z,68.16
2018-09-06T04:58:03.774Z,68.29
2018-09-06T05:00:32.601Z,67.93
2018-09-06T05:03:01.423Z,67.88
2018-09-06T05:05:30.255Z,67.97
2018-09-06T05:07:59.018Z,66.65
2018-09-06T05:10:27.886Z,66.96
2018-09-06T05:12:56.699Z,67.77
2018-09-06T05:15:25.574Z,68.32
2018-09-06T05:17:54.388Z,68.25
2018-09-06T05:20:23.253Z,67.07
2018-09-06T05:22:52.068Z,66.70
2018-09-06T05:25:21.034Z,67.08
2018-09-06T05:27:49.876Z,66.66
2018-09-06T05:30:18.796Z,66.97
2018-09-06T05:32:47.591Z,66.10
2018-09-06T05:35:16.438Z,66.63
2018-09-06T05:37:45.387Z,66.96
2018-09-06T05:40:14.558Z,66.70
2018-09-06T05:42:46.380Z,66.64
2018-09-06T05:45:15.167Z,67.08
2018-09-06T05:47:43.973Z,66.59
2018-09-06T05:50:12.775Z,66.07
2018-09-06T05:52:41.589Z,66.26
2018-09-06T05:55:10.370Z,66.21
2018-09-06T05:57:39.176Z,66.78
2018-09-06T06:00:13.279Z,65.99
2018-09-06T06:02:42.172Z,65.92
2018-09-06T06:05:11.378Z,65.73
2018-09-06T06:07:51.375Z,66.19
2018-09-06T06:10:20.220Z,65.40
2018-09-06T06:12:49.156Z,64.79
2018-09-06T06:15:18.008Z,64.55
2018-09-06T06:17:46.868Z,63.81
2018-09-06T06:20:15.697Z,62.47
2018-09-06T06:22:44.507Z,62.19
2018-09-06T06:25:13.319Z,62.43
2018-09-06T06:27:42.129Z,63.10
2018-09-06T06:30:10.969Z,62.43
2018-09-06T06:32:39.917Z,62.44
2018-09-06T06:35:08.777Z,63.17
2018-09-06T06:37:37.559Z,64.72
2018-09-06T06:40:06.396Z,65.55
2018-09-06T06:42:35.548Z,64.73
2018-09-06T06:45:04.379Z,65.03
2018-09-06T06:47:33.304Z,64.78
2018-09-06T06:50:02.111Z,64.17
2018-09-06T06:52:30.955Z,64.55
2018-09-06T06:54:59.713Z,65.31
2018-09-06T06:57:28.490Z,64.51
2018-09-06T06:59:57.246Z,65.14
2018-09-06T07:02:26.111Z,64.22
2018-09-06T07:04:55.387Z,64.38
2018-09-06T07:07:24.201Z,64.97
2018-09-06T07:09:53.074Z,64.33
2018-09-06T07:12:21.918Z,64.38
2018-09-06T07:14:50.792Z,63.66
2018-09-06T07:17:19.592Z,63.76
2018-09-06T07:19:48.460Z,64.81
2018-09-06T07:22:17.272Z,64.36
2018-09-06T07:24:46.064Z,64.74
2018-09-06T07:27:14.913Z,63.94
2018-09-06T07:29:43.742Z,63.96
2018-09-06T07:32:12.574Z,63.96
2018-09-06T07:34:41.448Z,63.75
2018-09-06T07:37:10.254Z,62.80
2018-09-06T07:39:39.101Z,61.15
2018-09-06T07:42:07.902Z,61.80
2018-09-06T07:44:36.738Z,61.79
2018-09-06T07:47:05.620Z,61.90
2018-09-06T07:49:34.521Z,62.10
2018-09-06T07:52:03.717Z,60.90
2018-09-06T07:54:32.498Z,61.29
2018-09-06T07:57:01.377Z,61.71
2018-09-06T07:59:30.135Z,60.59
2018-09-06T08:01:58.920Z,61.09
2018-09-06T08:04:27.751Z,60.44
2018-09-06T08:06:56.554Z,58.51
2018-09-06T08:09:25.629Z,59.59
2018-09-06T08:11:54.825Z,60.08
2018-09-06T08:14:23.783Z,59.94
2018-09-06T08:16:52.625Z,59.80
2018-09-06T08:19:21.504Z,59.64
2018-09-06T08:21:50.291Z,58.09
2018-09-06T08:24:22.884Z,58.76
2018-09-06T08:26:51.940Z,58.60
2018-09-06T08:29:20.764Z,57.08
2018-09-06T08:31:49.708Z,57.07
2018-09-06T08:34:18.497Z,56.62
2018-09-06T08:36:47.349Z,56.03
2018-09-06T08:39:16.166Z,54.17
2018-09-06T08:41:44.950Z,54.48
2018-09-06T08:44:13.783Z,53.59
2018-09-06T08:46:42.682Z,54.44
2018-09-06T08:49:11.469Z,54.28
2018-09-06T08:51:40.195Z,55.15
2018-09-06T08:54:10.438Z,53.96
2018-09-06T08:56:39.271Z,52.21
2018-09-06T08:59:08.129Z,53.09
2018-09-06T09:01:40.593Z,54.74
2018-09-06T09:04:09.832Z,54.21
2018-09-06T09:06:39.215Z,53.88
2018-09-06T09:09:14.807Z,53.21
2018-09-06T09:11:43.936Z,53.30
2018-09-06T09:14:12.768Z,52.01
2018-09-06T09:16:41.885Z,51.37
2018-09-06T09:19:10.669Z,50.78
2018-09-06T09:21:39.535Z,51.64
2018-09-06T09:24:08.936Z,51.35
2018-09-06T09:26:37.830Z,51.48
2018-09-06T09:29:06.636Z,51.72
2018-09-06T09:31:35.558Z,52.31
2018-09-06T09:34:04.595Z,50.23
2018-09-06T09:36:33.426Z,50.50
2018-09-06T09:39:02.259Z,50.30
2018-09-06T09:41:31.014Z,47.57
2018-09-06T09:43:59.928Z,48.53
2018-09-06T09:51:24.517Z,49.37
2018-09-06T09:53:53.365Z,49.39
2018-09-06T09:56:22.345Z,48.50
2018-09-06T09:58:51.119Z,48.82
2018-09-06T10:01:20.181Z,48.92
2018-09-06T10:03:54.202Z,49.31
2018-09-06T10:06:28.504Z,48.39
2018-09-06T10:09:02.786Z,48.52
2018-09-06T10:11:31.981Z,48.03
2018-09-06T10:14:01.126Z,48.02
2018-09-06T10:16:30.600Z,47.95
2018-09-06T10:18:59.742Z,47.67
2018-09-06T10:21:28.559Z,47.65
2018-09-06T10:23:57.476Z,47.28
2018-09-06T10:26:26.252Z,46.47
2018-09-06T10:28:55.453Z,47.29
2018-09-06T10:31:24.317Z,48.19
2018-09-06T10:33:53.151Z,48.05
2018-09-06T10:36:22.437Z,48.01
2018-09-06T10:38:51.327Z,47.21
2018-09-06T10:41:20.119Z,45.12
2018-09-06T10:43:48.922Z,45.49
2018-09-06T10:46:18.007Z,45.12
2018-09-06T10:48:46.831Z,44.37
2018-09-06T10:51:15.747Z,44.10
2018-09-06T10:53:44.643Z,44.81
2018-09-06T10:56:13.718Z,44.67
2018-09-06T10:58:42.965Z,44.56
2018-09-06T11:01:16.958Z,44.53
2018-09-06T11:03:45.772Z,45.44
2018-09-06T11:06:14.716Z,44.80
2018-09-06T11:08:43.558Z,45.55
2018-09-06T11:11:12.384Z,45.35
2018-09-06T11:13:41.300Z,45.11
2018-09-06T11:16:10.909Z,44.38
2018-09-06T11:18:39.957Z,43.39
2018-09-06T11:21:08.765Z,43.91
2018-09-06T11:23:38.079Z,42.81
2018-09-06T11:26:07.247Z,41.69
2018-09-06T11:28:36.119Z,41.76
2018-09-06T11:31:05.239Z,41.79
2018-09-06T11:33:34.070Z,41.43
2018-09-06T11:36:02.891Z,41.05
2018-09-06T11:38:31.686Z,42.37
2018-09-06T11:41:00.453Z,43.29
2018-09-06T11:43:29.278Z,43.04
2018-09-06T11:45:58.084Z,43.10
2018-09-06T11:48:26.924Z,42.47
2018-09-06T11:50:55.782Z,42.53
2018-09-06T11:53:24.598Z,43.29
2018-09-06T11:55:53.409Z,43.32
2018-09-06T11:58:22.203Z,43.23
2018-09-06T12:00:51.457Z,43.67
2018-09-06T12:03:20.236Z,43.89
2018-09-06T12:05:49.025Z,43.91
2018-09-06T12:08:17.847Z,44.65
2018-09-06T12:10:46.675Z,43.84
2018-09-06T12:13:15.581Z,44.78
2018-09-06T12:15:44.577Z,43.87
2018-09-06T12:18:13.416Z,44.44
2018-09-06T12:20:42.609Z,44.41
2018-09-06T12:23:11.446Z,44.05
2018-09-06T12:25:40.263Z,44.69
2018-09-06T12:28:09.331Z,45.09
2018-09-06T12:30:38.311Z,44.00
2018-09-06T12:33:07.151Z,44.10
2018-09-06T12:35:36.349Z,44.21
2018-09-06T12:38:05.551Z,44.30
2018-09-06T12:40:34.360Z,44.80
2018-09-06T12:43:03.717Z,44.31
2018-09-06T12:45:32.867Z,44.87
2018-09-06T12:48:01.792Z,45.11
2018-09-06T12:50:30.587Z,44.50
2018-09-06T12:52:59.406Z,45.12
2018-09-06T12:55:28.181Z,44.07
2018-09-06T12:57:57.118Z,45.54
2018-09-06T13:00:26.206Z,46.62
2018-09-06T13:02:54.982Z,49.71
2018-09-06T13:05:24.081Z,50.40
2018-09-06T13:07:52.893Z,50.94
2018-09-06T13:10:21.679Z,50.98
2018-09-06T13:12:50.554Z,51.09
2018-09-06T13:15:19.305Z,51.01
2018-09-06T13:17:48.130Z,49.54
2018-09-06T13:20:16.889Z,50.16
2018-09-06T13:22:45.653Z,50.37
2018-09-06T13:25:14.523Z,49.43
2018-09-06T13:27:43.313Z,49.51
2018-09-06T13:30:12.182Z,48.54
2018-09-06T13:32:40.951Z,49.37
2018-09-06T13:35:09.770Z,49.50
2018-09-06T13:37:38.534Z,49.65
2018-09-06T13:40:07.479Z,47.56
2018-09-06T13:42:36.298Z,47.85
2018-09-06T13:45:05.642Z,47.14
2018-09-06T13:47:34.418Z,45.47
2018-09-06T13:50:03.270Z,46.10
2018-09-06T13:52:32.076Z,45.73
2018-09-06T13:55:00.874Z,45.06
2018-09-06T13:57:29.694Z,44.00
2018-09-06T13:59:58.622Z,44.67
2018-09-06T14:02:27.555Z,46.15
2018-09-06T14:04:56.416Z,44.26
2018-09-06T14:07:25.258Z,44.26
2018-09-06T14:09:54.202Z,44.05
2018-09-06T14:12:22.978Z,44.58
2018-09-06T14:14:51.769Z,44.41
2018-09-06T14:17:20.550Z,44.99
2018-09-06T14:19:49.339Z,44.35
2018-09-06T14:22:18.443Z,44.87
2018-09-06T14:24:47.304Z,44.28
2018-09-06T14:27:16.048Z,44.56
2018-09-06T14:29:44.827Z,44.59
2018-09-06T14:32:13.629Z,43.98
2018-09-06T14:34:42.650Z,44.02
2018-09-06T14:37:11.429Z,44.54
2018-09-06T14:39:40.321Z,44.17
2018-09-06T14:42:09.157Z,43.84
2018-09-06T14:44:38.010Z,45.03
2018-09-06T14:47:06.844Z,44.63
2018-09-06T14:49:35.699Z,44.50
2018-09-06T14:52:04.537Z,45.50
2018-09-06T14:54:33.486Z,45.79
2018-09-06T14:57:02.211Z,44.77
2018-09-06T14:59:31.343Z,45.56
2018-09-06T15:02:00.173Z,45.44
2018-09-06T15:04:29.000Z,44.97
2018-09-06T15:06:57.771Z,45.75
2018-09-06T15:09:26.602Z,44.71
2018-09-06T15:11:55.403Z,44.99
2018-09-06T15:14:24.263Z,44.52
2018-09-06T15:16:53.049Z,44.53
2018-09-06T15:19:21.914Z,44.69
2018-09-06T15:21:50.895Z,46.15
2018-09-06T15:24:19.634Z,45.17
2018-09-06T15:26:48.394Z,45.06
2018-09-06T15:29:17.150Z,44.20
2018-09-06T15:31:45.953Z,43.96
2018-09-06T15:34:14.741Z,44.63
2018-09-06T15:36:43.940Z,44.98
2018-09-06T15:39:12.730Z,44.79
2018-09-06T15:41:41.657Z,45.37
2018-09-06T15:44:10.480Z,45.23
2018-09-06T15:46:39.313Z,45.07
2018-09-06T15:49:08.366Z,45.21
2018-09-06T15:51:37.197Z,45.42
2018-09-06T15:54:06.086Z,44.93
2018-09-06T15:56:34.981Z,45.74
2018-09-06T15:59:03.833Z,44.13
2018-09-06T16:01:32.689Z,45.50
2018-09-06T16:04:01.527Z,44.48
2018-09-06T16:06:30.325Z,45.63
2018-09-06T16:08:59.092Z,44.75
2018-09-06T16:11:27.910Z,44.85
2018-09-06T16:13:56.803Z,45.86
2018-09-06T16:16:25.567Z,45.52
2018-09-06T16:18:54.385Z,46.75
2018-09-06T16:21:23.187Z,46.84
2018-09-06T16:23:51.983Z,47.15
2018-09-06T16:26:20.791Z,47.79
2018-09-06T16:28:49.637Z,49.02
2018-09-06T16:31:18.476Z,49.10
2018-09-06T16:33:47.559Z,49.62
2018-09-06T16:36:16.386Z,50.49
2018-09-06T16:38:45.290Z,50.77
2018-09-06T16:41:14.083Z,50.84
2018-09-06T16:43:42.885Z,51.26
2018-09-06T16:46:11.775Z,51.57
2018-09-06T16:48:40.695Z,51.75
2018-09-06T16:51:09.493Z,51.30
2018-09-06T16:53:38.354Z,51.83
2018-09-06T16:56:07.292Z,52.71
2018-09-06T16:58:36.128Z,52.32
2018-09-06T17:01:05.048Z,53.67
2018-09-06T17:03:33.986Z,53.68
2018-09-06T17:06:02.827Z,53.14
2018-09-06T17:08:31.585Z,54.33
2018-09-06T17:11:00.388Z,54.51
2018-09-06T17:13:29.193Z,54.95
2018-09-06T17:15:58.086Z,54.41
2018-09-06T17:18:26.950Z,55.61
2018-09-06T17:20:56.109Z,55.16
2018-09-06T17:23:24.913Z,55.44
2018-09-06T17:25:53.710Z,56.33
2018-09-06T17:28:22.541Z,56.65
2018-09-06T17:30:51.354Z,56.95
2018-09-06T17:33:20.215Z,56.50
2018-09-06T17:35:49.063Z,57.28
2018-09-06T17:38:17.925Z,56.71
2018-09-06T17:40:46.715Z,56.79
2018-09-06T17:43:15.474Z,57.27
2018-09-06T17:45:44.321Z,57.86
2018-09-06T17:48:13.168Z,58.10
2018-09-06T17:50:42.038Z,58.17
2018-09-06T17:53:10.939Z,58.52
2018-09-06T17:55:39.743Z,58.79
2018-09-06T17:58:08.557Z,58.69
2018-09-06T18:00:44.911Z,58.55
2018-09-06T18:03:14.324Z,58.64
2018-09-06T18:05:43.068Z,58.83
2018-09-06T18:08:12.442Z,59.21
2018-09-06T18:10:41.344Z,59.43
2018-09-06T18:13:10.283Z,59.50
2018-09-06T18:15:39.138Z,59.30
2018-09-06T18:18:08.070Z,58.83
2018-09-06T18:20:36.954Z,59.93
2018-09-06T18:23:05.910Z,59.07
2018-09-06T18:25:34.777Z,59.20
2018-09-06T18:28:03.654Z,59.77
2018-09-06T18:30:32.535Z,60.15
2018-09-06T18:33:01.837Z,59.10
2018-09-06T18:35:30.639Z,60.05
2018-09-06T18:37:59.480Z,60.05
2018-09-06T18:40:28.613Z,59.14
2018-09-06T18:42:57.537Z,59.29
2018-09-06T18:45:26.377Z,60.10
2018-09-06T18:47:56.040Z,59.93
2018-09-06T18:50:24.882Z,59.72
2018-09-06T18:52:53.747Z,59.77
2018-09-06T18:55:22.586Z,59.63
2018-09-06T18:57:51.475Z,59.87
2018-09-06T19:00:20.299Z,60.48
2018-09-06T19:02:49.065Z,60.02
2018-09-06T19:05:17.847Z,60.74
2018-09-06T19:07:46.694Z,60.07
2018-09-06T19:10:15.618Z,60.19
2018-09-06T19:12:44.371Z,61.05
2018-09-06T19:15:13.188Z,60.89
2018-09-06T19:17:42.033Z,61.41
2018-09-06T19:20:10.920Z,60.52
2018-09-06T19:22:39.697Z,61.35
2018-09-06T19:25:08.586Z,61.70
2018-09-06T19:27:37.389Z,61.68
2018-09-06T19:30:06.914Z,61.01
2018-09-06T19:32:35.749Z,61.44
2018-09-06T19:35:05.006Z,61.48
2018-09-06T19:37:33.876Z,61.88
2018-09-06T19:40:02.745Z,60.88
2018-09-06T19:42:31.555Z,61.13
2018-09-06T19:45:00.422Z,60.92
2018-09-06T19:47:29.342Z,61.27
2018-09-06T19:49:58.127Z,61.51
2018-09-06T19:52:26.920Z,61.31
2018-09-06T19:54:55.709Z,60.73
2018-09-06T19:57:24.558Z,60.93
2018-09-06T19:59:53.460Z,60.97
2018-09-06T20:02:22.260Z,60.19
2018-09-06T20:04:51.041Z,60.51
2018-09-06T20:07:19.794Z,60.86
2018-09-06T20:09:48.574Z,60.75
2018-09-06T20:12:17.444Z,60.86
2018-09-06T20:14:46.384Z,60.80
2018-09-06T20:17:15.177Z,61.29
2018-09-06T20:19:44.004Z,61.03
2018-09-06T20:22:12.778Z,60.72
2018-09-06T20:24:41.557Z,61.38
2018-09-06T20:27:10.385Z,60.91
2018-09-06T20:29:39.557Z,61.13
2018-09-06T20:32:08.366Z,61.96
2018-09-06T20:34:37.172Z,62.11
2018-09-06T20:37:06.019Z,61.25
2018-09-06T20:39:35.146Z,62.56
2018-09-06T20:42:03.966Z,61.76
2018-09-06T20:44:33.021Z,62.67
2018-09-06T20:47:01.858Z,61.58
2018-09-06T20:49:30.700Z,62.77
2018-09-06T20:51:59.525Z,62.07
2018-09-06T20:54:28.371Z,63.00
2018-09-06T20:56:57.142Z,62.16
2018-09-06T20:59:25.906Z,62.20
2018-09-06T21:01:54.956Z,62.98
2018-09-06T21:04:23.835Z,62.88
2018-09-06T21:06:52.612Z,62.24
2018-09-06T21:09:21.503Z,62.86
2018-09-06T21:11:50.261Z,62.03
2018-09-06T21:14:19.113Z,62.77
2018-09-06T21:16:48.404Z,63.18
2018-09-06T21:19:17.213Z,62.94
2018-09-06T21:21:46.010Z,63.30
2018-09-06T21:24:14.867Z,63.71
2018-09-06T21:26:43.687Z,63.00
2018-09-06T21:29:12.484Z,63.17
2018-09-06T21:31:41.746Z,63.54
2018-09-06T21:34:10.511Z,62.91
2018-09-06T21:36:39.301Z,62.78
2018-09-06T21:39:10.474Z,63.06
2018-09-06T21:41:39.359Z,63.74
2018-09-06T21:44:09.077Z,63.27
2018-09-06T21:46:37.913Z,63.69
2018-09-06T21:49:07.181Z,63.59
2018-09-06T21:51:35.995Z,63.96
2018-09-06T21:54:04.848Z,63.85
2018-09-06T21:56:33.743Z,64.15
2018-09-06T21:59:02.568Z,63.82
2018-09-06T22:01:31.426Z,64.63
2018-09-06T22:04:05.429Z,64.24
2018-09-06T22:06:34.527Z,64.96
2018-09-06T22:09:05.044Z,64.85
2018-09-06T22:11:33.873Z,64.89
2018-09-06T22:14:02.648Z,63.94
2018-09-06T22:16:31.607Z,64.76
2018-09-06T22:19:00.375Z,64.64
2018-09-06T22:21:29.146Z,64.91
2018-09-06T22:23:58.255Z,64.14
2018-09-06T22:26:27.156Z,64.29
2018-09-06T22:28:56.024Z,65.23
2018-09-06T22:31:24.903Z,65.31
2018-09-06T22:33:53.730Z,65.50
2018-09-06T22:36:22.512Z,65.23
2018-09-06T22:38:51.349Z,64.57
2018-09-06T22:41:20.189Z,65.06
2018-09-06T22:43:48.987Z,64.69
2018-09-06T22:46:17.800Z,64.89
2018-09-06T22:48:46.557Z,65.27
2018-09-06T22:51:15.506Z,65.19
2018-09-06T22:53:44.322Z,64.78
2018-09-06T22:56:13.123Z,65.50
2018-09-06T22:58:41.956Z,65.08
2018-09-06T23:01:10.948Z,65.52
2018-09-06T23:03:41.457Z,65.45
2018-09-06T23:06:10.614Z,65.53
2018-09-06T23:08:41.277Z,65.33
2018-09-06T23:11:10.090Z,64.93
2018-09-06T23:13:38.878Z,65.69
2018-09-06T23:16:07.714Z,65.83
2018-09-06T23:21:10.278Z,66.79
2018-09-06T23:23:39.881Z,67.43
2018-09-06T23:26:08.830Z,67.98
2018-09-06T23:28:37.647Z,68.43
2018-09-06T23:31:07.486Z,68.65
2018-09-06T23:33:36.396Z,67.94
2018-09-06T23:36:05.265Z,68.45
2018-09-06T23:38:34.467Z,69.10
2018-09-06T23:41:04.137Z,69.91
2018-09-06T23:43:32.926Z,69.31
2018-09-06T23:46:01.786Z,69.79
2018-09-06T23:48:31.855Z,70.34
2018-09-06T23:51:01.543Z,69.63
2018-09-06T23:53:30.335Z,69.68
2018-09-06T23:55:59.190Z,70.77
2018-09-06T23:58:27.986Z,70.80
